sensor_id;sensor_type;location;lat;lon;timestamp;temperature;humidity
4922;DHT22;16625;53.624;10.106;2023-04-10T00:00:01;4.70;99.90
4922;DHT22;16625;53.624;10.106;2023-04-10T00:02:30;4.50;99.90
4922;DHT22;16625;53.624;10.106;2023-04-10T00:04:58;4.50;99.90
4922;DHT22;16625;53.624;10.106;2023-04-10T00:07:29;4.50;99.90
4922;DHT22;16625;53.624;10.106;2023-04-10T00:10:03;4.50;99.90
4922;DHT22;16625;53.624;10.106;2023-04-10T00:12:30;4.50;99.90
4922;DHT22;16625;53.624;10.106;2023-04-10T00:14:57;4.40;99.90
4922;DHT22;16625;53.624;10.106;2023-04-10T00:17:29;4.50;99.90
4922;DHT22;16625;53.624;10.106;2023-04-10T00:19:57;4.30;99.90
4922;DHT22;16625;53.624;10.106;2023-04-10T00:22:28;4.40;99.90
4922;DHT22;16625;53.624;10.106;2023-04-10T00:24:55;4.30;99.90
4922;DHT22;16625;53.624;10.106;2023-04-10T00:27:22;4.40;99.90
4922;DHT22;16625;53.624;10.106;2023-04-10T00:29:52;4.40;99.90
4922;DHT22;16625;53.624;10.106;2023-04-10T00:32:19;4.40;99.90
4922;DHT22;16625;53.624;10.106;2023-04-10T00:34:46;4.30;99.90
4922;DHT22;16625;53.624;10.106;2023-04-10T00:37:15;4.30;99.90
4922;DHT22;16625;53.624;10.106;2023-04-10T00:39:42;4.40;99.90
4922;DHT22;16625;53.624;10.106;2023-04-10T00:42:09;4.30;99.90
4922;DHT22;16625;53.624;10.106;2023-04-10T00:44:36;4.30;99.90
4922;DHT22;16625;53.624;10.106;2023-04-10T00:47:03;4.20;99.90
4922;DHT22;16625;53.624;10.106;2023-04-10T00:49:41;4.30;99.90
4922;DHT22;16625;53.624;10.106;2023-04-10T00:52:11;4.30;99.90
4922;DHT22;16625;53.624;10.106;2023-04-10T00:54:42;4.30;99.90
4922;DHT22;16625;53.624;10.106;2023-04-10T00:57:10;4.40;99.90
4922;DHT22;16625;53.624;10.106;2023-04-10T00:59:37;4.20;99.90
4922;DHT22;16625;53.624;10.106;2023-04-10T01:02:04;4.30;99.90
4922;DHT22;16625;53.624;10.106;2023-04-10T01:04:33;4.40;99.90
4922;DHT22;16625;53.624;10.106;2023-04-10T01:07:08;4.10;99.90
4922;DHT22;16625;53.624;10.106;2023-04-10T01:09:43;4.30;99.90
4922;DHT22;16625;53.624;10.106;2023-04-10T01:12:28;4.30;99.90
4922;DHT22;16625;53.624;10.106;2023-04-10T01:15:06;4.40;99.90
4922;DHT22;16625;53.624;10.106;2023-04-10T01:17:41;4.30;99.90
4922;DHT22;16625;53.624;10.106;2023-04-10T01:20:12;4.30;99.90
4922;DHT22;16625;53.624;10.106;2023-04-10T01:22:51;4.30;99.90
4922;DHT22;16625;53.624;10.106;2023-04-10T01:25:37;4.30;99.90
4922;DHT22;16625;53.624;10.106;2023-04-10T01:31:07;4.30;99.90
4922;DHT22;16625;53.624;10.106;2023-04-10T01:33:40;4.30;99.90
4922;DHT22;16625;53.624;10.106;2023-04-10T01:36:12;4.40;99.90
4922;DHT22;16625;53.624;10.106;2023-04-10T01:38:47;4.60;99.90
4922;DHT22;16625;53.624;10.106;2023-04-10T01:41:15;4.40;99.90
4922;DHT22;16625;53.624;10.106;2023-04-10T01:43:42;4.30;99.90
4922;DHT22;16625;53.624;10.106;2023-04-10T01:46:14;4.30;99.90
4922;DHT22;16625;53.624;10.106;2023-04-10T01:48:42;4.60;99.90
4922;DHT22;16625;53.624;10.106;2023-04-10T01:51:10;4.40;99.90
4922;DHT22;16625;53.624;10.106;2023-04-10T01:53:39;4.30;99.90
4922;DHT22;16625;53.624;10.106;2023-04-10T01:56:09;4.40;99.90
4922;DHT22;16625;53.624;10.106;2023-04-10T01:58:37;4.40;99.90
4922;DHT22;16625;53.624;10.106;2023-04-10T02:01:16;4.40;99.90
4922;DHT22;16625;53.624;10.106;2023-04-10T02:03:45;4.40;99.90
4922;DHT22;16625;53.624;10.106;2023-04-10T02:06:15;4.40;99.90
4922;DHT22;16625;53.624;10.106;2023-04-10T02:08:52;4.50;99.90
4922;DHT22;16625;53.624;10.106;2023-04-10T02:11:25;4.40;99.90
4922;DHT22;16625;53.624;10.106;2023-04-10T02:13:59;4.20;99.90
4922;DHT22;16625;53.624;10.106;2023-04-10T02:16:28;4.40;99.90
4922;DHT22;16625;53.624;10.106;2023-04-10T02:19:01;4.40;99.90
4922;DHT22;16625;53.624;10.106;2023-04-10T02:21:28;4.30;99.90
4922;DHT22;16625;53.624;10.106;2023-04-10T02:23:56;4.50;99.90
4922;DHT22;16625;53.624;10.106;2023-04-10T02:26:24;4.40;99.90
4922;DHT22;16625;53.624;10.106;2023-04-10T02:28:51;4.20;99.90
4922;DHT22;16625;53.624;10.106;2023-04-10T02:31:18;4.20;99.90
4922;DHT22;16625;53.624;10.106;2023-04-10T02:33:51;4.20;99.90
4922;DHT22;16625;53.624;10.106;2023-04-10T02:36:19;4.10;99.90
4922;DHT22;16625;53.624;10.106;2023-04-10T02:38:50;4.10;99.90
4922;DHT22;16625;53.624;10.106;2023-04-10T02:41:19;4.10;99.90
4922;DHT22;16625;53.624;10.106;2023-04-10T02:43:46;4.10;99.90
4922;DHT22;16625;53.624;10.106;2023-04-10T02:46:13;4.10;99.90
4922;DHT22;16625;53.624;10.106;2023-04-10T02:48:40;4.10;99.90
4922;DHT22;16625;53.624;10.106;2023-04-10T02:51:09;4.00;99.90
4922;DHT22;16625;53.624;10.106;2023-04-10T02:53:37;4.00;99.90
4922;DHT22;16625;53.624;10.106;2023-04-10T02:56:05;4.00;99.90
4922;DHT22;16625;53.624;10.106;2023-04-10T02:58:33;3.90;99.90
4922;DHT22;16625;53.624;10.106;2023-04-10T03:01:01;3.90;99.90
4922;DHT22;16625;53.624;10.106;2023-04-10T03:03:28;4.10;99.90
4922;DHT22;16625;53.624;10.106;2023-04-10T03:05:55;3.90;99.90
4922;DHT22;16625;53.624;10.106;2023-04-10T03:08:24;3.90;99.90
4922;DHT22;16625;53.624;10.106;2023-04-10T03:10:55;4.00;99.90
4922;DHT22;16625;53.624;10.106;2023-04-10T03:13:23;4.10;99.90
4922;DHT22;16625;53.624;10.106;2023-04-10T03:15:50;3.80;99.90
4922;DHT22;16625;53.624;10.106;2023-04-10T03:18:17;3.80;99.90
4922;DHT22;16625;53.624;10.106;2023-04-10T03:20:43;3.80;99.90
4922;DHT22;16625;53.624;10.106;2023-04-10T03:23:11;3.70;99.90
4922;DHT22;16625;53.624;10.106;2023-04-10T03:25:38;3.70;99.90
4922;DHT22;16625;53.624;10.106;2023-04-10T03:28:07;3.60;99.90
4922;DHT22;16625;53.624;10.106;2023-04-10T03:30:34;3.80;99.90
4922;DHT22;16625;53.624;10.106;2023-04-10T03:33:03;3.60;99.90
4922;DHT22;16625;53.624;10.106;2023-04-10T03:35:30;3.60;99.90
4922;DHT22;16625;53.624;10.106;2023-04-10T03:38:11;3.70;99.90
4922;DHT22;16625;53.624;10.106;2023-04-10T03:40:40;3.60;99.90
4922;DHT22;16625;53.624;10.106;2023-04-10T03:43:12;3.50;99.90
4922;DHT22;16625;53.624;10.106;2023-04-10T03:45:39;3.50;99.90
4922;DHT22;16625;53.624;10.106;2023-04-10T03:48:07;3.50;99.90
4922;DHT22;16625;53.624;10.106;2023-04-10T03:50:49;3.60;99.90
4922;DHT22;16625;53.624;10.106;2023-04-10T03:53:17;3.50;99.90
4922;DHT22;16625;53.624;10.106;2023-04-10T03:55:47;3.60;99.90
4922;DHT22;16625;53.624;10.106;2023-04-10T03:58:21;3.60;99.90
4922;DHT22;16625;53.624;10.106;2023-04-10T04:00:50;3.50;99.90
4922;DHT22;16625;53.624;10.106;2023-04-10T04:03:18;3.70;99.90
4922;DHT22;16625;53.624;10.106;2023-04-10T04:05:45;3.60;99.90
4922;DHT22;16625;53.624;10.106;2023-04-10T04:08:17;3.50;99.90
4922;DHT22;16625;53.624;10.106;2023-04-10T04:10:46;3.50;99.90
4922;DHT22;16625;53.624;10.106;2023-04-10T04:13:14;3.50;99.90
4922;DHT22;16625;53.624;10.106;2023-04-10T04:15:42;3.40;99.90
4922;DHT22;16625;53.624;10.106;2023-04-10T04:18:12;3.50;99.90
4922;DHT22;16625;53.624;10.106;2023-04-10T04:20:40;3.50;99.90
4922;DHT22;16625;53.624;10.106;2023-04-10T04:23:07;3.40;99.90
4922;DHT22;16625;53.624;10.106;2023-04-10T04:25:34;3.50;99.90
4922;DHT22;16625;53.624;10.106;2023-04-10T04:28:04;3.30;99.90
4922;DHT22;16625;53.624;10.106;2023-04-10T04:30:34;3.40;99.90
4922;DHT22;16625;53.624;10.106;2023-04-10T04:33:03;3.40;99.90
4922;DHT22;16625;53.624;10.106;2023-04-10T04:35:30;3.30;99.90
4922;DHT22;16625;53.624;10.106;2023-04-10T04:37:57;3.30;99.90
4922;DHT22;16625;53.624;10.106;2023-04-10T04:40:26;3.30;99.90
4922;DHT22;16625;53.624;10.106;2023-04-10T04:42:55;3.40;99.90
4922;DHT22;16625;53.624;10.106;2023-04-10T04:45:22;3.30;99.90
4922;DHT22;16625;53.624;10.106;2023-04-10T04:47:51;3.40;99.90
4922;DHT22;16625;53.624;10.106;2023-04-10T04:50:24;3.30;99.90
4922;DHT22;16625;53.624;10.106;2023-04-10T04:52:51;3.30;99.90
4922;DHT22;16625;53.624;10.106;2023-04-10T04:55:19;3.50;99.90
4922;DHT22;16625;53.624;10.106;2023-04-10T04:57:52;3.30;99.90
4922;DHT22;16625;53.624;10.106;2023-04-10T05:00:21;3.40;99.90
4922;DHT22;16625;53.624;10.106;2023-04-10T05:02:48;3.40;99.90
4922;DHT22;16625;53.624;10.106;2023-04-10T05:05:18;3.40;99.90
4922;DHT22;16625;53.624;10.106;2023-04-10T05:07:55;3.60;99.90
4922;DHT22;16625;53.624;10.106;2023-04-10T05:10:27;3.70;99.90
4922;DHT22;16625;53.624;10.106;2023-04-10T05:12:54;3.60;99.90
4922;DHT22;16625;53.624;10.106;2023-04-10T05:15:24;3.60;99.90
4922;DHT22;16625;53.624;10.106;2023-04-10T05:17:53;3.80;99.90
4922;DHT22;16625;53.624;10.106;2023-04-10T05:20:24;4.00;99.90
4922;DHT22;16625;53.624;10.106;2023-04-10T05:22:55;3.90;99.90
4922;DHT22;16625;53.624;10.106;2023-04-10T05:25:30;4.00;99.90
4922;DHT22;16625;53.624;10.106;2023-04-10T05:28:07;4.10;99.90
4922;DHT22;16625;53.624;10.106;2023-04-10T05:30:37;4.20;99.90
4922;DHT22;16625;53.624;10.106;2023-04-10T05:33:21;4.30;99.90
4922;DHT22;16625;53.624;10.106;2023-04-10T05:35:59;4.50;99.90
4922;DHT22;16625;53.624;10.106;2023-04-10T05:38:44;4.80;99.90
4922;DHT22;16625;53.624;10.106;2023-04-10T05:41:36;4.80;99.90
4922;DHT22;16625;53.624;10.106;2023-04-10T05:44:08;5.00;99.90
4922;DHT22;16625;53.624;10.106;2023-04-10T05:46:35;5.10;99.90
4922;DHT22;16625;53.624;10.106;2023-04-10T05:49:02;5.40;99.90
4922;DHT22;16625;53.624;10.106;2023-04-10T05:51:30;5.60;99.90
4922;DHT22;16625;53.624;10.106;2023-04-10T05:54:13;5.70;99.90
4922;DHT22;16625;53.624;10.106;2023-04-10T05:56:40;5.70;99.90
4922;DHT22;16625;53.624;10.106;2023-04-10T05:59:23;5.80;99.90
4922;DHT22;16625;53.624;10.106;2023-04-10T06:01:50;5.90;99.90
4922;DHT22;16625;53.624;10.106;2023-04-10T06:04:17;6.10;99.90
4922;DHT22;16625;53.624;10.106;2023-04-10T06:06:45;6.10;99.90
4922;DHT22;16625;53.624;10.106;2023-04-10T06:09:14;6.20;99.90
4922;DHT22;16625;53.624;10.106;2023-04-10T06:11:43;6.20;99.90
4922;DHT22;16625;53.624;10.106;2023-04-10T06:14:17;6.30;99.90
4922;DHT22;16625;53.624;10.106;2023-04-10T06:17:07;6.40;99.90
4922;DHT22;16625;53.624;10.106;2023-04-10T06:19:36;6.50;99.90
4922;DHT22;16625;53.624;10.106;2023-04-10T06:22:03;6.50;99.90
4922;DHT22;16625;53.624;10.106;2023-04-10T06:24:32;6.60;99.90
4922;DHT22;16625;53.624;10.106;2023-04-10T06:26:59;6.70;99.90
4922;DHT22;16625;53.624;10.106;2023-04-10T06:29:26;6.90;99.90
4922;DHT22;16625;53.624;10.106;2023-04-10T06:31:54;6.90;99.90
4922;DHT22;16625;53.624;10.106;2023-04-10T06:34:21;7.10;99.90
4922;DHT22;16625;53.624;10.106;2023-04-10T06:36:49;7.10;99.90
4922;DHT22;16625;53.624;10.106;2023-04-10T06:39:16;7.20;99.90
4922;DHT22;16625;53.624;10.106;2023-04-10T06:41:45;7.40;99.90
4922;DHT22;16625;53.624;10.106;2023-04-10T06:44:12;7.50;99.90
4922;DHT22;16625;53.624;10.106;2023-04-10T06:46:40;7.50;99.90
4922;DHT22;16625;53.624;10.106;2023-04-10T06:49:07;7.60;99.90
4922;DHT22;16625;53.624;10.106;2023-04-10T06:51:34;7.70;99.90
4922;DHT22;16625;53.624;10.106;2023-04-10T06:54:01;7.80;57.50
4922;DHT22;16625;53.624;10.106;2023-04-10T06:56:28;7.70;1.00
4922;DHT22;16625;53.624;10.106;2023-04-10T06:58:57;8.00;1.00
4922;DHT22;16625;53.624;10.106;2023-04-10T07:01:26;8.20;1.00
4922;DHT22;16625;53.624;10.106;2023-04-10T07:03:53;8.20;99.90
4922;DHT22;16625;53.624;10.106;2023-04-10T07:06:21;8.30;99.90
4922;DHT22;16625;53.624;10.106;2023-04-10T07:08:49;8.40;67.10
4922;DHT22;16625;53.624;10.106;2023-04-10T07:11:16;8.60;1.00
4922;DHT22;16625;53.624;10.106;2023-04-10T07:13:43;8.70;99.90
4922;DHT22;16625;53.624;10.106;2023-04-10T07:16:13;8.80;99.90
4922;DHT22;16625;53.624;10.106;2023-04-10T07:18:41;9.00;99.90
4922;DHT22;16625;53.624;10.106;2023-04-10T07:21:09;9.20;1.00
4922;DHT22;16625;53.624;10.106;2023-04-10T07:23:38;9.40;4.00
4922;DHT22;16625;53.624;10.106;2023-04-10T07:26:06;9.40;99.90
4922;DHT22;16625;53.624;10.106;2023-04-10T07:28:35;9.60;1.00
4922;DHT22;16625;53.624;10.106;2023-04-10T07:31:06;9.60;99.90
4922;DHT22;16625;53.624;10.106;2023-04-10T07:33:36;9.60;1.00
4922;DHT22;16625;53.624;10.106;2023-04-10T07:36:04;9.80;1.00
4922;DHT22;16625;53.624;10.106;2023-04-10T07:38:31;9.80;99.90
4922;DHT22;16625;53.624;10.106;2023-04-10T07:40:58;9.90;50.40
4922;DHT22;16625;53.624;10.106;2023-04-10T07:43:27;10.10;1.00
4922;DHT22;16625;53.624;10.106;2023-04-10T07:45:55;10.10;99.90
4922;DHT22;16625;53.624;10.106;2023-04-10T07:48:26;10.20;99.90
4922;DHT22;16625;53.624;10.106;2023-04-10T07:50:55;10.40;99.90
4922;DHT22;16625;53.624;10.106;2023-04-10T07:53:23;10.50;99.90
4922;DHT22;16625;53.624;10.106;2023-04-10T07:55:53;10.70;99.90
4922;DHT22;16625;53.624;10.106;2023-04-10T07:58:20;10.80;1.00
4922;DHT22;16625;53.624;10.106;2023-04-10T08:00:50;10.80;1.00
4922;DHT22;16625;53.624;10.106;2023-04-10T08:03:18;11.10;1.00
4922;DHT22;16625;53.624;10.106;2023-04-10T08:05:45;11.20;1.00
4922;DHT22;16625;53.624;10.106;2023-04-10T08:08:15;11.30;1.00
4922;DHT22;16625;53.624;10.106;2023-04-10T08:10:45;11.50;99.90
4922;DHT22;16625;53.624;10.106;2023-04-10T08:13:13;11.60;1.00
4922;DHT22;16625;53.624;10.106;2023-04-10T08:15:40;11.70;99.90
4922;DHT22;16625;53.624;10.106;2023-04-10T08:18:07;11.90;99.90
4922;DHT22;16625;53.624;10.106;2023-04-10T08:20:37;12.10;99.90
4922;DHT22;16625;53.624;10.106;2023-04-10T08:23:04;12.20;99.90
4922;DHT22;16625;53.624;10.106;2023-04-10T08:25:34;12.40;99.90
4922;DHT22;16625;53.624;10.106;2023-04-10T08:28:01;12.30;99.90
4922;DHT22;16625;53.624;10.106;2023-04-10T08:30:30;12.40;99.90
4922;DHT22;16625;53.624;10.106;2023-04-10T08:32:57;12.60;99.90
4922;DHT22;16625;53.624;10.106;2023-04-10T08:35:26;12.60;99.90
4922;DHT22;16625;53.624;10.106;2023-04-10T08:37:53;12.70;93.80
4922;DHT22;16625;53.624;10.106;2023-04-10T08:40:20;12.80;65.00
4922;DHT22;16625;53.624;10.106;2023-04-10T08:42:50;12.80;30.00
4922;DHT22;16625;53.624;10.106;2023-04-10T08:45:18;12.90;16.60
4922;DHT22;16625;53.624;10.106;2023-04-10T14:43:50;18.30;99.90
4922;DHT22;16625;53.624;10.106;2023-04-10T14:46:17;18.30;99.90
4922;DHT22;16625;53.624;10.106;2023-04-10T14:48:48;18.30;99.90
4922;DHT22;16625;53.624;10.106;2023-04-10T14:51:15;18.40;99.90
4922;DHT22;16625;53.624;10.106;2023-04-10T14:53:43;18.40;99.90
4922;DHT22;16625;53.624;10.106;2023-04-10T14:56:12;18.30;99.90
4922;DHT22;16625;53.624;10.106;2023-04-10T14:58:39;18.10;99.90
4922;DHT22;16625;53.624;10.106;2023-04-10T15:01:09;18.40;99.90
4922;DHT22;16625;53.624;10.106;2023-04-10T15:03:38;18.40;99.90
4922;DHT22;16625;53.624;10.106;2023-04-10T15:06:11;18.60;99.90
4922;DHT22;16625;53.624;10.106;2023-04-10T15:08:39;18.60;99.90
4922;DHT22;16625;53.624;10.106;2023-04-10T15:11:06;18.50;99.90
4922;DHT22;16625;53.624;10.106;2023-04-10T15:13:34;18.60;99.90
4922;DHT22;16625;53.624;10.106;2023-04-10T15:16:04;18.60;99.90
4922;DHT22;16625;53.624;10.106;2023-04-10T15:18:34;18.70;99.90
4922;DHT22;16625;53.624;10.106;2023-04-10T15:21:01;18.70;99.90
4922;DHT22;16625;53.624;10.106;2023-04-10T15:23:28;18.60;99.90
4922;DHT22;16625;53.624;10.106;2023-04-10T15:25:56;18.40;99.90
4922;DHT22;16625;53.624;10.106;2023-04-10T15:28:24;18.40;99.90
4922;DHT22;16625;53.624;10.106;2023-04-10T15:30:52;18.40;99.90
4922;DHT22;16625;53.624;10.106;2023-04-10T15:33:22;18.30;99.90
4922;DHT22;16625;53.624;10.106;2023-04-10T15:35:52;18.30;99.90
4922;DHT22;16625;53.624;10.106;2023-04-10T15:38:23;18.20;99.90
4922;DHT22;16625;53.624;10.106;2023-04-10T15:40:53;18.20;99.90
4922;DHT22;16625;53.624;10.106;2023-04-10T15:43:20;18.20;99.90
4922;DHT22;16625;53.624;10.106;2023-04-10T15:46:09;18.10;99.90
4922;DHT22;16625;53.624;10.106;2023-04-10T15:48:37;18.10;99.90
4922;DHT22;16625;53.624;10.106;2023-04-10T15:51:09;18.10;99.90
4922;DHT22;16625;53.624;10.106;2023-04-10T15:53:44;18.20;99.90
4922;DHT22;16625;53.624;10.106;2023-04-10T15:56:15;18.30;99.90
4922;DHT22;16625;53.624;10.106;2023-04-10T15:58:43;18.20;99.90
4922;DHT22;16625;53.624;10.106;2023-04-10T16:01:11;18.40;99.90
4922;DHT22;16625;53.624;10.106;2023-04-10T16:03:40;18.20;99.90
4922;DHT22;16625;53.624;10.106;2023-04-10T16:06:09;18.30;99.90
4922;DHT22;16625;53.624;10.106;2023-04-10T16:08:40;18.10;99.90
4922;DHT22;16625;53.624;10.106;2023-04-10T16:11:10;18.00;99.90
4922;DHT22;16625;53.624;10.106;2023-04-10T16:13:47;17.80;99.90
4922;DHT22;16625;53.624;10.106;2023-04-10T16:16:17;17.60;99.90
4922;DHT22;16625;53.624;10.106;2023-04-10T16:18:44;17.30;99.90
4922;DHT22;16625;53.624;10.106;2023-04-10T16:21:13;17.10;99.90
4922;DHT22;16625;53.624;10.106;2023-04-10T16:23:40;16.90;99.90
4922;DHT22;16625;53.624;10.106;2023-04-10T16:26:09;16.80;99.90
4922;DHT22;16625;53.624;10.106;2023-04-10T16:28:36;16.70;99.90
4922;DHT22;16625;53.624;10.106;2023-04-10T16:31:03;16.70;99.90
4922;DHT22;16625;53.624;10.106;2023-04-10T16:33:32;16.60;99.90
4922;DHT22;16625;53.624;10.106;2023-04-10T16:36:09;16.60;99.90
4922;DHT22;16625;53.624;10.106;2023-04-10T16:38:38;16.50;99.90
4922;DHT22;16625;53.624;10.106;2023-04-10T16:41:06;16.40;99.90
4922;DHT22;16625;53.624;10.106;2023-04-10T16:43:34;16.10;99.90
4922;DHT22;16625;53.624;10.106;2023-04-10T16:46:03;16.20;99.90
4922;DHT22;16625;53.624;10.106;2023-04-10T16:48:31;16.20;99.90
4922;DHT22;16625;53.624;10.106;2023-04-10T16:50:59;16.10;99.90
4922;DHT22;16625;53.624;10.106;2023-04-10T16:53:31;16.00;99.90
4922;DHT22;16625;53.624;10.106;2023-04-10T16:56:00;15.80;99.90
4922;DHT22;16625;53.624;10.106;2023-04-10T16:58:29;15.90;99.90
4922;DHT22;16625;53.624;10.106;2023-04-10T17:00:57;15.80;99.90
4922;DHT22;16625;53.624;10.106;2023-04-10T17:03:24;15.70;99.90
4922;DHT22;16625;53.624;10.106;2023-04-10T17:05:51;15.70;99.90
4922;DHT22;16625;53.624;10.106;2023-04-10T17:08:18;15.60;99.90
4922;DHT22;16625;53.624;10.106;2023-04-10T17:10:45;15.60;99.90
4922;DHT22;16625;53.624;10.106;2023-04-10T17:13:17;15.50;99.90
4922;DHT22;16625;53.624;10.106;2023-04-10T17:15:46;15.50;99.90
4922;DHT22;16625;53.624;10.106;2023-04-10T17:18:16;15.40;99.90
4922;DHT22;16625;53.624;10.106;2023-04-10T17:20:46;15.40;99.90
4922;DHT22;16625;53.624;10.106;2023-04-10T17:23:13;15.20;99.90
4922;DHT22;16625;53.624;10.106;2023-04-10T17:25:41;15.10;99.90
4922;DHT22;16625;53.624;10.106;2023-04-10T17:28:08;15.20;99.90
4922;DHT22;16625;53.624;10.106;2023-04-10T17:30:37;15.20;99.90
4922;DHT22;16625;53.624;10.106;2023-04-10T17:33:06;15.20;99.90
4922;DHT22;16625;53.624;10.106;2023-04-10T17:35:33;15.20;99.90
4922;DHT22;16625;53.624;10.106;2023-04-10T17:38:00;15.20;99.90
4922;DHT22;16625;53.624;10.106;2023-04-10T17:40:28;15.10;99.90
4922;DHT22;16625;53.624;10.106;2023-04-10T17:42:57;15.00;99.90
4922;DHT22;16625;53.624;10.106;2023-04-10T17:45:26;15.00;99.90
4922;DHT22;16625;53.624;10.106;2023-04-10T17:47:57;15.00;99.90
4922;DHT22;16625;53.624;10.106;2023-04-10T17:50:24;14.90;99.90
4922;DHT22;16625;53.624;10.106;2023-04-10T17:52:53;14.90;99.90
4922;DHT22;16625;53.624;10.106;2023-04-10T17:55:21;14.90;99.90
4922;DHT22;16625;53.624;10.106;2023-04-10T17:57:51;14.80;99.90
4922;DHT22;16625;53.624;10.106;2023-04-10T18:00:19;14.80;99.90
4922;DHT22;16625;53.624;10.106;2023-04-10T18:02:49;14.70;99.90
4922;DHT22;16625;53.624;10.106;2023-04-10T18:05:27;14.70;99.90
4922;DHT22;16625;53.624;10.106;2023-04-10T18:07:55;14.60;99.90
4922;DHT22;16625;53.624;10.106;2023-04-10T18:10:33;14.60;99.90
4922;DHT22;16625;53.624;10.106;2023-04-10T18:13:00;14.50;99.90
4922;DHT22;16625;53.624;10.106;2023-04-10T18:15:32;14.50;99.90
4922;DHT22;16625;53.624;10.106;2023-04-10T18:18:00;14.40;99.90
4922;DHT22;16625;53.624;10.106;2023-04-10T18:20:29;14.40;99.90
4922;DHT22;16625;53.624;10.106;2023-04-10T18:22:56;14.40;99.90
4922;DHT22;16625;53.624;10.106;2023-04-10T18:25:27;14.40;99.90
4922;DHT22;16625;53.624;10.106;2023-04-10T18:27:57;14.40;99.90
4922;DHT22;16625;53.624;10.106;2023-04-10T18:30:28;14.40;99.90
4922;DHT22;16625;53.624;10.106;2023-04-10T18:32:58;14.30;99.90
4922;DHT22;16625;53.624;10.106;2023-04-10T18:35:25;14.40;99.90
4922;DHT22;16625;53.624;10.106;2023-04-10T18:37:56;14.30;99.90
4922;DHT22;16625;53.624;10.106;2023-04-10T18:40:24;14.20;99.90
4922;DHT22;16625;53.624;10.106;2023-04-10T18:42:52;14.20;99.90
4922;DHT22;16625;53.624;10.106;2023-04-10T18:45:19;14.20;99.90
4922;DHT22;16625;53.624;10.106;2023-04-10T18:47:52;14.30;99.90
4922;DHT22;16625;53.624;10.106;2023-04-10T18:50:19;14.10;99.90
4922;DHT22;16625;53.624;10.106;2023-04-10T18:52:50;14.10;99.90
4922;DHT22;16625;53.624;10.106;2023-04-10T18:55:27;14.10;99.90
4922;DHT22;16625;53.624;10.106;2023-04-10T18:58:00;14.20;99.90
4922;DHT22;16625;53.624;10.106;2023-04-10T19:00:27;14.10;99.90
4922;DHT22;16625;53.624;10.106;2023-04-10T19:02:56;14.10;99.90
4922;DHT22;16625;53.624;10.106;2023-04-10T19:05:23;14.10;99.90
4922;DHT22;16625;53.624;10.106;2023-04-10T19:08:04;14.10;99.90
4922;DHT22;16625;53.624;10.106;2023-04-10T19:10:33;14.00;99.90
4922;DHT22;16625;53.624;10.106;2023-04-10T19:13:00;14.00;99.90
4922;DHT22;16625;53.624;10.106;2023-04-10T19:15:31;14.00;99.90
4922;DHT22;16625;53.624;10.106;2023-04-10T19:17:58;14.00;99.90
4922;DHT22;16625;53.624;10.106;2023-04-10T19:20:26;13.90;99.90
4922;DHT22;16625;53.624;10.106;2023-04-10T19:22:53;13.90;99.90
4922;DHT22;16625;53.624;10.106;2023-04-10T19:25:21;13.90;99.90
4922;DHT22;16625;53.624;10.106;2023-04-10T19:28:17;13.90;99.90
4922;DHT22;16625;53.624;10.106;2023-04-10T19:30:45;13.90;99.90
4922;DHT22;16625;53.624;10.106;2023-04-10T19:33:18;13.90;99.90
4922;DHT22;16625;53.624;10.106;2023-04-10T19:35:45;13.90;99.90
4922;DHT22;16625;53.624;10.106;2023-04-10T19:38:13;14.00;99.90
4922;DHT22;16625;53.624;10.106;2023-04-10T19:40:40;13.80;99.90
4922;DHT22;16625;53.624;10.106;2023-04-10T19:43:12;13.90;99.90
4922;DHT22;16625;53.624;10.106;2023-04-10T19:45:39;13.80;99.90
4922;DHT22;16625;53.624;10.106;2023-04-10T19:48:08;13.90;99.90
